createdAt,value
2019-05-17T00:02:57.175Z,99.90
2019-05-17T00:05:58.292Z,99.90
2019-05-17T00:09:00.523Z,99.90
2019-05-17T00:12:02.849Z,99.90
2019-05-17T00:15:07.169Z,99.90
2019-05-17T00:18:07.526Z,99.90
2019-05-17T00:21:09.803Z,99.90
2019-05-17T00:24:12.046Z,99.90
2019-05-17T00:27:14.317Z,99.90
2019-05-17T00:30:17.671Z,99.90
2019-05-17T00:33:18.907Z,99.90
2019-05-17T00:36:21.170Z,99.90
2019-05-17T00:39:23.411Z,99.90
2019-05-17T00:42:26.456Z,99.90
2019-05-17T00:45:28.009Z,99.90
2019-05-17T00:48:30.239Z,99.90
2019-05-17T00:51:32.484Z,99.90
2019-05-17T00:54:36.179Z,99.90
2019-05-17T00:57:37.147Z,99.90
2019-05-17T01:00:39.394Z,99.90
2019-05-17T01:03:41.684Z,99.90
2019-05-17T01:06:43.956Z,99.90
2019-05-17T01:09:47.235Z,99.90
2019-05-17T01:12:48.507Z,99.90
2019-05-17T01:15:50.768Z,99.90
2019-05-17T01:18:52.991Z,99.90
2019-05-17T01:21:56.801Z,99.90
2019-05-17T01:24:57.524Z,99.90
2019-05-17T01:27:59.735Z,99.90
2019-05-17T01:31:01.955Z,99.90
2019-05-17T01:34:04.161Z,99.90
2019-05-17T01:37:06.624Z,99.90
2019-05-17T01:40:08.699Z,99.90
2019-05-17T01:43:10.903Z,99.90
2019-05-17T01:46:13.157Z,99.90
2019-05-17T01:49:16.437Z,99.90
2019-05-17T01:52:17.717Z,99.90
2019-05-17T01:55:19.951Z,99.90
2019-05-17T01:58:22.167Z,99.90
2019-05-17T02:01:24.402Z,99.90
2019-05-17T02:04:26.877Z,99.90
2019-05-17T02:07:29.014Z,99.90
2019-05-17T02:10:31.243Z,99.90
2019-05-17T02:13:33.476Z,99.90
2019-05-17T02:16:37.696Z,99.90
2019-05-17T02:19:38.082Z,99.90
2019-05-17T02:22:40.334Z,99.90
2019-05-17T02:25:42.555Z,99.90
2019-05-17T02:28:44.788Z,99.90
2019-05-17T02:31:47.062Z,99.90
2019-05-17T02:34:49.321Z,99.90
2019-05-17T02:37:53.480Z,99.90
2019-05-17T02:40:54.043Z,99.90
2019-05-17T02:43:56.236Z,99.90
2019-05-17T02:46:58.493Z,99.90
2019-05-17T02:50:00.718Z,99.90
2019-05-17T02:53:04.508Z,99.90
2019-05-17T02:56:05.268Z,99.90
2019-05-17T02:59:07.605Z,99.90
2019-05-17T03:02:12.353Z,99.90
2019-05-17T03:05:12.842Z,99.90
2019-05-17T03:08:14.508Z,99.90
2019-05-17T03:11:16.751Z,99.90
2019-05-17T03:14:19.020Z,99.90
2019-05-17T03:17:22.919Z,99.90
2019-05-17T03:20:23.533Z,99.90
2019-05-17T03:23:25.842Z,99.90
2019-05-17T03:26:28.094Z,99.90
2019-05-17T03:29:33.234Z,99.90
2019-05-17T03:32:36.305Z,99.90
2019-05-17T03:35:37.950Z,99.90
2019-05-17T03:38:37.113Z,99.90
2019-05-17T03:41:42.651Z,99.90
2019-05-17T03:44:43.832Z,99.90
2019-05-17T03:47:44.846Z,99.90
2019-05-17T03:50:46.224Z,99.90
2019-05-17T03:53:48.424Z,99.90
2019-05-17T03:56:53.343Z,99.90
2019-05-17T03:59:53.081Z,99.90
2019-05-17T04:02:55.336Z,99.90
2019-05-17T04:05:57.588Z,99.90
2019-05-17T04:09:03.314Z,99.90
2019-05-17T04:12:02.800Z,99.90
2019-05-17T04:15:04.509Z,99.90
2019-05-17T04:18:06.796Z,99.90
2019-05-17T04:21:09.034Z,99.90
2019-05-17T04:24:12.680Z,99.90
2019-05-17T04:27:13.803Z,99.90
2019-05-17T04:30:16.490Z,99.90
2019-05-17T04:33:18.720Z,99.90
2019-05-17T04:36:22.456Z,99.90
2019-05-17T04:39:23.160Z,99.90
2019-05-17T04:45:33.440Z,99.90
2019-05-17T04:48:33.216Z,99.90
2019-05-17T04:51:35.451Z,99.90
2019-05-17T04:54:37.735Z,99.90
2019-05-17T04:57:43.314Z,99.90
2019-05-17T05:00:43.161Z,99.90
2019-05-17T05:03:44.838Z,99.90
2019-05-17T05:06:47.104Z,99.90
2019-05-17T05:09:52.178Z,99.90
2019-05-17T05:12:52.418Z,99.90
2019-05-17T05:15:54.086Z,99.90
2019-05-17T05:18:56.287Z,99.90
2019-05-17T05:21:58.544Z,99.90
2019-05-17T05:25:02.197Z,99.90
2019-05-17T05:28:03.098Z,99.90
2019-05-17T05:31:05.356Z,99.90
2019-05-17T05:34:07.559Z,99.90
2019-05-17T05:37:09.839Z,99.90
2019-05-17T05:40:12.899Z,99.90
2019-05-17T05:43:14.653Z,99.90
2019-05-17T05:46:16.904Z,99.90
2019-05-17T05:49:21.569Z,99.90
2019-05-17T05:52:21.959Z,99.90
2019-05-17T05:55:23.805Z,99.90
2019-05-17T05:58:26.089Z,99.90
2019-05-17T06:01:28.344Z,99.90
2019-05-17T06:04:31.853Z,99.90
2019-05-17T06:07:32.860Z,99.90
2019-05-17T06:10:35.165Z,99.90
2019-05-17T06:13:37.431Z,99.90
2019-05-17T06:16:42.295Z,99.90
2019-05-17T06:19:42.300Z,99.90
2019-05-17T06:22:44.325Z,99.90
2019-05-17T06:25:46.537Z,99.90
2019-05-17T06:28:48.770Z,99.10
2019-05-17T06:31:51.866Z,99.90
2019-05-17T06:34:53.239Z,98.20
2019-05-17T06:37:55.905Z,98.00
2019-05-17T06:40:58.150Z,96.60
2019-05-17T06:44:02.742Z,97.20
2019-05-17T06:47:02.931Z,95.60
2019-05-17T06:50:05.094Z,94.80
2019-05-17T06:53:07.339Z,95.10
2019-05-17T06:56:09.532Z,93.80
2019-05-17T06:59:11.806Z,94.00
2019-05-17T07:02:14.071Z,93.70
2019-05-17T07:05:20.088Z,92.70
2019-05-17T07:08:21.279Z,92.20
2019-05-17T07:11:23.501Z,92.70
2019-05-17T07:14:25.723Z,91.70
2019-05-17T07:17:30.257Z,90.90
2019-05-17T07:20:30.236Z,89.70
2019-05-17T07:23:32.466Z,88.80
2019-05-17T07:26:34.704Z,89.20
2019-05-17T07:29:36.938Z,87.80
2019-05-17T07:32:40.606Z,86.30
2019-05-17T07:35:41.387Z,87.00
2019-05-17T07:38:43.659Z,86.90
2019-05-17T07:41:45.933Z,86.70
2019-05-17T07:44:49.685Z,86.60
2019-05-17T07:47:50.655Z,87.00
2019-05-17T07:50:52.875Z,86.10
2019-05-17T07:53:55.072Z,85.40
2019-05-17T07:57:00.100Z,85.40
2019-05-17T08:00:00.097Z,84.40
2019-05-17T08:03:02.019Z,84.20
2019-05-17T08:06:04.307Z,85.00
2019-05-17T08:09:06.609Z,82.80
2019-05-17T08:12:10.998Z,83.40
2019-05-17T08:15:11.340Z,83.40
2019-05-17T08:18:13.633Z,84.50
2019-05-17T08:21:15.873Z,83.90
2019-05-17T08:24:19.632Z,84.20
2019-05-17T08:27:20.456Z,85.80
2019-05-17T08:30:22.792Z,85.00
2019-05-17T08:33:25.060Z,85.50
2019-05-17T08:36:29.653Z,83.70
2019-05-17T08:39:30.209Z,84.80
2019-05-17T08:42:32.099Z,83.50
2019-05-17T08:45:34.383Z,84.10
2019-05-17T08:48:36.659Z,84.30
2019-05-17T08:51:39.656Z,83.50
2019-05-17T08:54:42.902Z,84.40
2019-05-17T08:57:43.444Z,83.90
2019-05-17T09:00:45.765Z,83.90
2019-05-17T09:03:50.442Z,83.70
2019-05-17T09:06:50.605Z,84.60
2019-05-17T09:09:52.616Z,84.70
2019-05-17T09:12:54.891Z,84.80
2019-05-17T09:15:57.119Z,84.30
2019-05-17T09:19:00.561Z,85.50
2019-05-17T09:22:01.572Z,85.80
2019-05-17T09:25:04.257Z,85.80
2019-05-17T09:28:06.567Z,85.30
2019-05-17T09:31:10.390Z,85.20
2019-05-17T09:34:11.191Z,85.70
2019-05-17T09:37:16.801Z,86.20
2019-05-17T09:40:15.794Z,85.50
2019-05-17T09:43:20.552Z,85.60
2019-05-17T09:46:21.535Z,85.20
2019-05-17T09:49:23.858Z,84.70
2019-05-17T09:52:26.129Z,83.40
2019-05-17T09:55:30.137Z,83.70
2019-05-17T09:58:30.711Z,83.50
2019-05-17T10:01:32.960Z,83.40
2019-05-17T10:04:35.211Z,83.00
2019-05-17T10:07:39.966Z,83.00
2019-05-17T10:10:40.263Z,83.50
2019-05-17T10:13:41.954Z,82.10
2019-05-17T10:16:44.207Z,79.70
2019-05-17T10:19:46.506Z,80.00
2019-05-17T10:22:50.353Z,80.90
2019-05-17T10:25:51.067Z,79.40
2019-05-17T10:28:53.357Z,80.70
2019-05-17T10:31:55.580Z,79.50
2019-05-17T10:35:00.121Z,79.60
2019-05-17T10:38:00.189Z,77.30
2019-05-17T10:41:02.482Z,77.20
2019-05-17T10:44:04.806Z,78.10
2019-05-17T10:47:07.084Z,77.90
2019-05-17T10:50:10.967Z,78.00
2019-05-17T10:53:11.621Z,79.10
2019-05-17T10:56:13.915Z,80.80
2019-05-17T10:59:16.164Z,80.30
2019-05-17T11:02:19.667Z,79.60
2019-05-17T11:05:20.851Z,78.10
2019-05-17T11:08:23.119Z,77.80
2019-05-17T11:11:25.361Z,77.30
2019-05-17T11:14:27.575Z,77.60
2019-05-17T11:17:29.837Z,76.50
2019-05-17T11:20:32.083Z,75.60
2019-05-17T11:23:34.390Z,75.00
2019-05-17T11:26:36.783Z,75.50
2019-05-17T11:29:39.031Z,74.50
2019-05-17T11:32:41.369Z,75.70
2019-05-17T11:35:43.668Z,75.40
2019-05-17T11:38:45.912Z,78.60
2019-05-17T11:41:48.158Z,78.60
2019-05-17T11:44:50.444Z,77.70
2019-05-17T11:47:52.631Z,76.60
2019-05-17T11:50:55.306Z,74.30
2019-05-17T11:53:57.616Z,74.10
2019-05-17T11:56:59.831Z,75.30
2019-05-17T12:00:02.120Z,76.90
2019-05-17T12:03:04.427Z,77.30
2019-05-17T12:06:06.699Z,77.60
2019-05-17T12:09:08.951Z,77.10
2019-05-17T12:12:11.187Z,77.40
2019-05-17T12:15:13.504Z,77.60
2019-05-17T12:18:15.756Z,76.80
2019-05-17T12:21:18.277Z,77.20
2019-05-17T12:24:20.508Z,75.50
2019-05-17T12:27:22.724Z,76.40
2019-05-17T12:30:24.980Z,76.70
2019-05-17T12:33:27.294Z,76.30
2019-05-17T12:36:29.532Z,76.90
2019-05-17T12:39:31.838Z,76.80
2019-05-17T12:42:34.103Z,76.00
2019-05-17T12:45:36.349Z,75.60
2019-05-17T12:48:38.665Z,74.90
2019-05-17T12:51:40.943Z,74.70
2019-05-17T12:54:43.163Z,75.30
2019-05-17T12:57:45.394Z,74.10
2019-05-17T13:00:47.650Z,72.70
2019-05-17T13:03:49.940Z,73.90
2019-05-17T13:06:52.205Z,73.40
2019-05-17T13:09:54.492Z,73.20
2019-05-17T13:12:56.711Z,72.70
2019-05-17T13:15:58.984Z,73.30
2019-05-17T13:19:01.279Z,72.50
2019-05-17T13:22:03.608Z,72.10
2019-05-17T13:25:05.975Z,73.00
2019-05-17T13:28:08.204Z,73.40
2019-05-17T13:31:10.482Z,73.40
2019-05-17T13:34:12.755Z,71.60
2019-05-17T13:37:15.054Z,71.60
2019-05-17T13:40:17.381Z,72.00
2019-05-17T13:43:19.771Z,71.30
2019-05-17T13:46:32.712Z,72.20
2019-05-17T13:49:24.359Z,71.80
2019-05-17T13:52:26.648Z,72.90
2019-05-17T13:55:29.057Z,73.30
2019-05-17T13:58:31.302Z,72.60
2019-05-17T14:01:33.549Z,72.60
2019-05-17T14:04:35.792Z,72.60
2019-05-17T14:07:38.015Z,73.00
2019-05-17T14:10:40.255Z,70.90
2019-05-17T14:13:42.484Z,70.60
2019-05-17T14:16:44.774Z,70.10
2019-05-17T14:19:47.043Z,71.80
2019-05-17T14:22:49.263Z,72.00
2019-05-17T14:25:51.515Z,71.80
2019-05-17T14:28:53.733Z,70.60
2019-05-17T14:31:55.972Z,70.40
2019-05-17T14:34:58.267Z,69.30
2019-05-17T14:38:00.509Z,69.20
2019-05-17T14:41:08.099Z,68.80
2019-05-17T14:44:05.008Z,67.80
2019-05-17T14:47:07.310Z,68.90
2019-05-17T14:50:09.636Z,69.60
2019-05-17T14:53:11.891Z,69.60
2019-05-17T14:56:14.108Z,69.80
2019-05-17T14:59:16.341Z,70.20
2019-05-17T15:02:18.559Z,68.60
2019-05-17T15:05:20.783Z,69.10
2019-05-17T15:08:23.040Z,69.10
2019-05-17T15:11:25.372Z,67.90
2019-05-17T15:14:29.690Z,68.10
2019-05-17T15:17:34.118Z,68.70
2019-05-17T15:20:32.169Z,67.90
2019-05-17T15:23:34.450Z,67.00
2019-05-17T15:26:36.679Z,67.20
2019-05-17T15:29:38.946Z,67.20
2019-05-17T15:32:41.180Z,67.50
2019-05-17T15:35:43.659Z,67.30
2019-05-17T15:38:45.871Z,66.90
2019-05-17T15:41:48.128Z,66.80
2019-05-17T15:44:50.367Z,66.90
2019-05-17T15:47:52.627Z,67.20
2019-05-17T15:50:54.861Z,66.30
2019-05-17T15:53:57.122Z,65.70
2019-05-17T15:56:59.348Z,65.60
2019-05-17T16:00:01.727Z,65.50
2019-05-17T16:03:04.021Z,65.20
2019-05-17T16:06:06.326Z,64.90
2019-05-17T16:09:08.590Z,65.10
2019-05-17T16:12:10.917Z,64.70
2019-05-17T16:15:13.195Z,64.00
2019-05-17T16:18:15.473Z,63.90
2019-05-17T16:21:17.729Z,63.40
2019-05-17T16:24:20.078Z,63.70
2019-05-17T16:27:22.448Z,63.10
2019-05-17T16:30:24.818Z,62.80
2019-05-17T16:33:27.152Z,62.90
2019-05-17T16:36:29.484Z,63.50
2019-05-17T16:39:31.757Z,63.80
2019-05-17T16:42:34.022Z,63.80
2019-05-17T16:45:36.291Z,63.70
2019-05-17T16:48:38.558Z,63.90
2019-05-17T16:51:40.829Z,64.50
2019-05-17T16:54:43.060Z,64.50
2019-05-17T16:57:45.271Z,65.10
2019-05-17T17:00:47.540Z,65.30
2019-05-17T17:03:49.822Z,65.50
2019-05-17T17:06:52.329Z,66.00
2019-05-17T17:09:54.578Z,66.10
2019-05-17T17:12:56.808Z,66.10
2019-05-17T17:15:59.064Z,66.00
2019-05-17T17:19:01.338Z,65.90
2019-05-17T17:22:03.596Z,66.40
2019-05-17T17:25:05.928Z,66.40
2019-05-17T17:28:08.177Z,66.00
2019-05-17T17:31:11.197Z,66.50
2019-05-17T17:34:13.485Z,66.30
2019-05-17T17:37:15.779Z,66.50
2019-05-17T17:40:18.861Z,66.50
2019-05-17T17:43:21.131Z,66.70
2019-05-17T17:46:23.378Z,67.20
2019-05-17T17:49:25.599Z,67.70
2019-05-17T17:52:27.852Z,68.10
2019-05-17T17:55:30.119Z,68.70
2019-05-17T17:58:32.356Z,69.00
2019-05-17T18:01:34.665Z,69.30
2019-05-17T18:04:36.926Z,69.80
2019-05-17T18:07:39.287Z,70.10
2019-05-17T18:10:41.613Z,70.30
2019-05-17T18:13:43.888Z,70.50
2019-05-17T18:16:46.143Z,70.80
2019-05-17T18:19:48.399Z,70.90
2019-05-17T18:22:50.742Z,70.90
2019-05-17T18:25:53.027Z,71.10
2019-05-17T18:28:55.316Z,72.10
2019-05-17T18:31:57.638Z,71.40
2019-05-17T18:34:59.890Z,71.40
2019-05-17T18:38:02.168Z,71.70
2019-05-17T18:41:04.438Z,71.80
2019-05-17T18:44:06.708Z,72.00
2019-05-17T18:47:08.993Z,71.90
2019-05-17T18:50:11.501Z,72.10
2019-05-17T18:53:17.192Z,72.40
2019-05-17T18:56:16.141Z,72.60
2019-05-17T18:59:18.394Z,72.80
2019-05-17T19:02:20.652Z,73.00
2019-05-17T19:05:22.929Z,73.20
2019-05-17T19:08:25.159Z,73.70
2019-05-17T19:11:27.480Z,74.10
2019-05-17T19:14:42.108Z,74.40
2019-05-17T19:17:32.045Z,74.80
2019-05-17T19:20:34.312Z,75.10
2019-05-17T19:23:36.643Z,75.20
2019-05-17T19:26:38.935Z,75.30
2019-05-17T19:29:43.242Z,75.50
2019-05-17T19:32:43.634Z,75.70
2019-05-17T19:35:45.951Z,76.10
2019-05-17T19:38:48.206Z,76.80
2019-05-17T19:41:50.491Z,77.10
2019-05-17T19:44:59.035Z,77.50
2019-05-17T19:47:55.090Z,77.80
2019-05-17T19:50:57.543Z,78.00
2019-05-17T19:53:59.772Z,78.20
2019-05-17T19:57:02.109Z,78.40
2019-05-17T20:00:04.519Z,78.60
2019-05-17T20:03:06.908Z,78.90
2019-05-17T20:06:09.231Z,79.20
2019-05-17T20:09:11.585Z,79.20
2019-05-17T20:12:13.924Z,79.40
2019-05-17T20:15:18.137Z,79.50
2019-05-17T20:18:18.639Z,80.10
2019-05-17T20:21:20.996Z,80.50
2019-05-17T20:24:23.328Z,80.90
2019-05-17T20:27:25.710Z,81.10
2019-05-17T20:30:27.995Z,82.10
2019-05-17T20:33:30.365Z,82.40
2019-05-17T20:36:32.710Z,82.90
2019-05-17T20:39:35.018Z,83.40
2019-05-17T20:42:37.350Z,83.90
2019-05-17T20:45:39.659Z,83.90
2019-05-17T20:48:41.956Z,84.40
2019-05-17T20:51:44.273Z,85.30
2019-05-17T20:54:46.599Z,85.70
2019-05-17T20:57:48.925Z,85.90
2019-05-17T21:00:51.309Z,86.30
2019-05-17T21:03:53.616Z,86.80
2019-05-17T21:06:55.936Z,87.30
2019-05-17T21:09:58.294Z,87.30
2019-05-17T21:13:00.629Z,88.30
2019-05-17T21:16:03.047Z,88.30
2019-05-17T21:19:05.362Z,89.40
2019-05-17T21:22:07.738Z,89.80
2019-05-17T21:25:10.107Z,90.10
2019-05-17T21:28:12.464Z,90.30
2019-05-17T21:31:14.872Z,90.40
2019-05-17T21:34:17.137Z,90.70
2019-05-17T21:37:19.437Z,91.00
2019-05-17T21:40:21.768Z,91.30
2019-05-17T21:43:24.053Z,91.70
2019-05-17T21:46:26.355Z,91.70
2019-05-17T21:49:28.666Z,92.10
2019-05-17T21:52:31.014Z,92.40
2019-05-17T21:55:33.264Z,92.90
2019-05-17T21:58:35.563Z,92.80
2019-05-17T22:01:37.879Z,93.00
2019-05-17T22:04:40.275Z,93.10
2019-05-17T22:07:42.578Z,93.20
2019-05-17T22:10:44.895Z,93.40
2019-05-17T22:13:47.163Z,93.40
2019-05-17T22:16:49.565Z,93.80
2019-05-17T22:19:51.867Z,94.50
2019-05-17T22:22:54.138Z,95.30
2019-05-17T22:25:56.504Z,95.20
2019-05-17T22:28:58.874Z,95.20
2019-05-17T22:32:01.282Z,95.60
2019-05-17T22:35:04.153Z,96.10
2019-05-17T22:38:06.468Z,96.50
2019-05-17T22:41:08.756Z,96.70
2019-05-17T22:44:11.059Z,96.90
2019-05-17T22:47:13.327Z,97.70
2019-05-17T22:50:15.725Z,97.70
2019-05-17T22:53:18.024Z,98.90
2019-05-17T22:56:20.323Z,99.70
2019-05-17T22:59:22.628Z,99.90
2019-05-17T23:02:24.940Z,99.90
2019-05-17T23:05:27.343Z,99.90
2019-05-17T23:08:29.667Z,99.90
2019-05-17T23:11:32.026Z,99.90
2019-05-17T23:14:34.401Z,99.90
2019-05-17T23:17:36.751Z,99.90
2019-05-17T23:20:39.055Z,99.90
2019-05-17T23:23:41.421Z,99.90
2019-05-17T23:26:43.685Z,99.90
2019-05-17T23:29:46.045Z,99.90
2019-05-17T23:32:48.352Z,99.90
2019-05-17T23:35:50.584Z,99.90
2019-05-17T23:38:52.912Z,99.90
2019-05-17T23:41:55.261Z,99.90
2019-05-17T23:44:57.542Z,99.90
2019-05-17T23:47:59.802Z,99.90
2019-05-17T23:51:02.129Z,99.90
2019-05-17T23:54:04.484Z,99.90
2019-05-17T23:57:06.791Z,99.90
